AirNav   ATP
 
 607 users online  

2K6 Elk County Airport
Moline, Kansas, USA

GOING TO MOLINE?


FAA INFORMATION EFFECTIVE 13 SEPTEMBER 2018

Location

FAA Identifier: 2K6
Lat/Long: 37-22-51.3000N / 096-16-16.0000W
37-22.855000N / 096-16.266667W
37.3809167 / -96.2711111
(estimated)
Elevation: 1063 ft. / 324 m (estimated)
Variation: 06E (1985)
From city: 3 miles NE of MOLINE, KS
Time zone: UTC -5 (UTC -6 during Standard Time)
Zip code: 67345

Airport Operations

Airport use: Open to the public
Activation date: 12/1946
Control tower: no
ARTCC: KANSAS CITY CENTER
FSS: WICHITA FLIGHT SERVICE STATION
NOTAMs facility: ICT (NOTAM-D service available)
Attendance: UNATNDD
Wind indicator: yes
Segmented circle: no

Airport Communications

CTAF: 122.9

Nearby radio navigation aids

VOR radial/distance  VOR name  Freq  Var
BVOr332/35.0BARTLESVILLE VOR/DME117.9008E
CNUr240/35.5CHANUTE VOR/DME109.2005E

 
NDB name  Hdg/Dist  Freq  Var  ID
COFFEYVILLE292/37.621205ECFV -.-. ..-. ...-

Airport Services

Airframe service: NONE
Powerplant service: NONE
Bottled oxygen: NONE
Bulk oxygen: NONE

Runway Information

Runway 18/36

Dimensions: 2510 x 40 ft. / 765 x 12 m
Surface: asphalt, in good condition
Gradient: N.
Operational restrictions: RWY 18/36 HAS CENTERLINE MARKING ONLY
RUNWAY 18  RUNWAY 36
Latitude: 37-23.062255N37-22.649157N
Longitude: 096-16.251918W096-16.279925W
Elevation: 1063.0 ft.1053.0 ft.
Gradient: 0.4% UP
Traffic pattern: leftleft
Runway heading: 177 magnetic, 183 true357 magnetic, 003 true
Markings: NSTD, in good conditionNSTD, in good condition
Obstructions: 41 ft. tree, 1560 ft. from runway, 26 ft. right of centerline, 33:1 slope to clear
OVERGROWN GRASS WATERWAY 20 FT FM RY END. SMALL TREE 25 FT TALL, 115 FT RIGHT OF RWY.
32 ft. pole, 260 ft. from runway, 75 ft. right of centerline, 1:1 slope to clear
+15 FT ROAD AT THLD.

Airport Ownership and Management from official FAA records

Ownership: Publicly-owned
Owner: ELK COUNTY
COURTHOUSE
HOWARD, KS 67349
Phone 620-374-2490
Manager: BYRDEE MILLER
POST OFFICE BOX 623
HOWARD, KS 67349
Phone 620-374-3597

Airport Operational Statistics

Aircraft based on the field: 2
Single engine airplanes: 2
    
Aircraft operations: 10/year *
100% local general aviation
* for 12-month period ending 09 May 2017

Additional Remarks

WILDLIFE ON & INVOF ARPT.

Instrument Procedures

There are no published instrument procedures at 2K6.

Some nearby airports with instrument procedures:

KIDP - Independence Municipal Airport (27 nm SE)
13K - Lt. William M. Milliken Airport (28 nm N)
2K7 - Neodesha Municipal Airport (30 nm E)
KEQA - El Dorado/Captain Jack Thomas Memorial Airport (35 nm NW)
KPPF - Tri-City Airport (37 nm E)
 
Loc | Ops | Rwys | IFR | FBO | Links
Com | Nav | Svcs | Stats | Notes

Kansas City Aviation Department
 
Area around 2K6 (Elk County Airport)
 
Road maps at: MapQuest Bing Google
 
Aerial photo
WARNING: Photo may not be current or correct
Aerial photo of 2K6 (Elk County Airport)
Photo by Eve Cascella
Photo taken 22-Sep-2013
looking north.

Do you have a better or more recent aerial photo of Elk County Airport that you would like to share? If so, please send us your photo.

 
Sectional chart

 
Airport distance calculator
Flying to Elk County Airport? Find the distance to fly.

From to 2K6

Sunrise and sunset
Times for 25-Sep-2018
 Local
(UTC-5)
 Zulu
(UTC)
Morning civil twilight06:5011:50
Sunrise07:1612:16
Sunset19:1700:17
Evening civil twilight19:4300:43

Current date and time
Zulu (UTC)  25-Sep-2018 05:00:50
Local (UTC-5)  25-Sep-2018 00:00:50
 
METAR
KIDP 
27nm SE 
250435Z AUTO 16006KT 10SM BKN026 BKN060 A2989 RMK AO2
KEQA 
35nm NW 
250435Z AUTO 16007KT 10SM CLR 20/18 A2988 RMK AO2
KPPF 
37nm E 
250452Z AUTO 17003KT 10SM FEW060 21/20 A2990 RMK AO2 SLP117 T02110200
KCFV 
38nm SE 
250452Z AUTO 17005KT 10SM BKN060 21/20 A2986 RMK AO2 SLP107 T02110200
KWLD 
39nm W 
250454Z AUTO 14003KT 10SM CLR 19/19 A2990 RMK AO2 SLP115 T01940189
KBVO 
39nm S 
250453Z AUTO 00000KT 10SM CLR 18/17 A2990 RMK AO2 SLP116 T01780172
KCNU 
41nm NE 
250452Z AUTO 13003KT 10SM FEW048 SCT060 20/20 A2990 RMK AO2 SLP117 T02000200
K3AU 
42nm NW 
250435Z AUTO 13005KT 10SM CLR 18/18 A2988 RMK AO2
K1K1 
46nm NW 
250435Z AUTO 16005KT 10SM CLR 19/18 A2988 RMK AO2 T01850181
KBEC 
49nm NW 
250435Z AUTO 14007KT 10SM CLR 19/18 A2987 RMK AO2 T01920184
TAF
KBVO 
39nm S 
241740Z 2418/2518 17007KT P6SM BKN015 BKN025 FM242000 17006KT P6SM SCT015 BKN025 BKN035 FM250100 17003KT P6SM SCT025 BKN035 FM250800 18003KT P6SM BKN015 FM251500 19007KT P6SM SCT150
KCNU 
41nm NE 
241838Z 2419/2518 16008KT P6SM BKN020 FM242000 16008KT P6SM BKN040 FM251000 VRB05KT P6SM BKN015 FM251500 21010KT P6SM SCT030
NOTAMs
Click for the latest NOTAMs
NOTAMs are issued by the DoD/FAA and will open in a separate window not controlled by AirNav.

 

 
 

Would you like to see your business listed on this page?

 If your business provides an interesting product or service to pilots, flight crews, aircraft, or users of the Elk County Airport, you should consider listing it here.  To start the listing process, click on the button below
 
Add a business
 

Other Pages about Elk County Airport

Update a link
 
Copyright © AirNav, LLC. All rights reserved. Privacy Policy  Contact